Terminal Aerodrome Forecast
Issued by NWS

Home | Current Version | Previous Version | Text Only | Print | Product List | Glossary On
Versions: 1 2 3 4 5 6 7 8 9 10 11 12 13 14 15 16 17 18 19 20 21
000
FTUS42 KJAX 071121
TAFCRG
TAF
KCRG 071121Z 0712/0812 26002KT 6SM BR BKN250
     FM071400 30005KT P6SM SCT020 SCT250
     FM080800 29002KT 2SM BR SCT005=

USA.gov is the U.S. government's official web portal to all federal, state and local government web resources and services.